Station Historical Data
Daily Summary for August 26, 2017 Units:  English    Metric   Both
« Previous Day
Next Day »
Daily Weekly Monthly Yearly Custom
  High: Low: Average:
Temperature: 72.5 °F 47.6 °F 60.4 °F
Dew Point: 55.5 °F 43.9 °F 49.3 °F
Humidity: 87% 45% 68%
Wind Speed: 6.0mph 0.0mph 0.9mph
Wind Gust: 12.0mph - -
Wind- - ESE
Pressure: 30.33 in 30.25 in -
Precipitation: 0.00 in    
Historical Graphs
 
 
Tabular Data for August 26, 2017
Time Temperature Dew Point Pressure Wind Wind Speed Wind Gust Humidity Rainfall Rate (Hourly)
00:04 54.5 °F 47.1 °F 30.27 in Calm     76% 0.00 in
00:09 54.4 °F 47.0 °F 30.27 in Calm     76% 0.00 in
00:14 54.3 °F 46.9 °F 30.27 in Calm     76% 0.00 in
00:19 54.2 °F 46.8 °F 30.27 in Calm     76% 0.00 in
00:24 53.9 °F 46.9 °F 30.27 in Calm     77% 0.00 in
00:29 53.6 °F 46.6 °F 30.27 in Calm     77% 0.00 in
00:34 53.5 °F 46.8 °F 30.27 in Calm     78% 0.00 in
00:39 53.2 °F 46.5 °F 30.27 in Calm     78% 0.00 in
00:44 53.0 °F 46.7 °F 30.27 in Calm     79% 0.00 in
00:49 52.8 °F 46.5 °F 30.27 in Calm     79% 0.00 in
00:54 52.7 °F 46.7 °F 30.27 in Calm     80% 0.00 in
00:59 52.6 °F 46.6 °F 30.27 in Calm     80% 0.00 in
01:04 52.4 °F 46.7 °F 30.27 in Calm     81% 0.00 in
01:09 52.4 °F 46.7 °F 30.27 in Calm     81% 0.00 in
01:14 52.3 °F 46.6 °F 30.27 in Calm     81% 0.00 in
01:19 52.2 °F 46.5 °F 30.27 in Calm     81% 0.00 in
01:24 52.0 °F 46.3 °F 30.27 in Calm     81% 0.00 in
01:29 52.0 °F 46.3 °F 30.27 in Calm     81% 0.00 in
01:34 52.0 °F 46.3 °F 30.27 in Calm     81% 0.00 in
01:39 51.9 °F 46.3 °F 30.27 in Calm     81% 0.00 in
01:44 51.7 °F 46.1 °F 30.27 in Calm     81% 0.00 in
01:49 51.5 °F 46.2 °F 30.26 in Calm     82% 0.00 in
01:54 51.4 °F 46.1 °F 30.27 in Calm     82% 0.00 in
01:59 51.4 °F 46.1 °F 30.27 in Calm     82% 0.00 in
02:04 51.2 °F 46.2 °F 30.27 in Calm     83% 0.00 in
02:09 51.1 °F 46.1 °F 30.27 in Calm     83% 0.00 in
02:14 51.0 °F 46.0 °F 30.27 in Calm     83% 0.00 in
02:19 50.9 °F 45.9 °F 30.27 in Calm     83% 0.00 in
02:24 50.8 °F 45.8 °F 30.27 in Calm     83% 0.00 in
02:29 50.7 °F 45.7 °F 30.27 in Calm     83% 0.00 in
02:34 50.6 °F 45.9 °F 30.27 in Calm     84% 0.00 in
02:39 50.6 °F 45.9 °F 30.27 in Calm     84% 0.00 in
02:44 50.6 °F 45.9 °F 30.27 in Calm     84% 0.00 in
02:49 50.6 °F 45.9 °F 30.27 in Calm     84% 0.00 in
02:54 50.5 °F 45.8 °F 30.27 in Calm     84% 0.00 in
02:59 50.3 °F 45.6 °F 30.27 in Calm     84% 0.00 in
03:04 50.2 °F 45.6 °F 30.27 in Calm     84% 0.00 in
03:09 50.2 °F 45.6 °F 30.27 in Calm     84% 0.00 in
03:14 50.1 °F 45.5 °F 30.27 in Calm     84% 0.00 in
03:19 50.0 °F 45.4 °F 30.27 in Calm     84% 0.00 in
03:24 50.0 °F 45.4 °F 30.27 in Calm     84% 0.00 in
03:29 49.8 °F 45.2 °F 30.27 in Calm     84% 0.00 in
03:34 49.6 °F 45.3 °F 30.27 in Calm     85% 0.00 in
03:39 49.6 °F 45.3 °F 30.27 in Calm     85% 0.00 in
03:44 49.6 °F 45.3 °F 30.27 in Calm     85% 0.00 in
03:49 49.6 °F 45.3 °F 30.27 in Calm     85% 0.00 in
03:54 49.4 °F 45.1 °F 30.27 in Calm     85% 0.00 in
03:59 49.3 °F 45.0 °F 30.27 in Calm     85% 0.00 in
04:04 49.4 °F 45.1 °F 30.27 in Calm     85% 0.00 in
04:09 49.2 °F 44.9 °F 30.27 in Calm     85% 0.00 in
04:14 49.1 °F 44.8 °F 30.27 in Calm     85% 0.00 in
04:19 48.9 °F 44.6 °F 30.28 in Calm     85% 0.00 in
04:24 48.6 °F 44.6 °F 30.28 in Calm     86% 0.00 in
04:29 48.6 °F 44.6 °F 30.28 in Calm     86% 0.00 in
04:34 48.6 °F 44.6 °F 30.28 in Calm     86% 0.00 in
04:39 48.6 °F 44.6 °F 30.28 in Calm     86% 0.00 in
04:44 48.6 °F 44.6 °F 30.28 in Calm     86% 0.00 in
04:49 48.5 °F 44.5 °F 30.28 in Calm     86% 0.00 in
04:54 48.2 °F 44.2 °F 30.28 in Calm     86% 0.00 in
04:59 48.1 °F 44.4 °F 30.28 in Calm     87% 0.00 in
05:04 48.0 °F 44.0 °F 30.29 in Calm     86% 0.00 in
05:09 48.2 °F 44.5 °F 30.29 in Calm     87% 0.00 in
05:14 48.2 °F 44.5 °F 30.29 in Calm     87% 0.00 in
05:19 48.3 °F 44.6 °F 30.29 in Calm     87% 0.00 in
05:29 48.3 °F 44.6 °F 30.29 in Calm     87% 0.00 in
05:34 48.3 °F 44.6 °F 30.29 in Calm     87% 0.00 in
05:39 48.2 °F 44.5 °F 30.29 in Calm     87% 0.00 in
05:44 48.1 °F 44.4 °F 30.29 in Calm     87% 0.00 in
05:49 48.3 °F 44.6 °F 30.29 in Calm     87% 0.00 in
05:54 48.1 °F 44.4 °F 30.29 in Calm     87% 0.00 in
05:59 48.1 °F 44.4 °F 30.29 in Calm     87% 0.00 in
06:04 48.1 °F 44.4 °F 30.29 in Calm     87% 0.00 in
06:09 48.1 °F 44.4 °F 30.29 in Calm     87% 0.00 in
06:14 47.9 °F 44.2 °F 30.29 in Calm     87% 0.00 in
06:19 47.9 °F 44.2 °F 30.29 in Calm     87% 0.00 in
06:24 47.8 °F 44.1 °F 30.29 in Calm     87% 0.00 in
06:29 47.8 °F 44.1 °F 30.30 in Calm     87% 0.00 in
06:34 47.6 °F 43.9 °F 30.30 in Calm     87% 0.00 in
06:39 47.7 °F 44.0 °F 30.30 in Calm     87% 0.00 in
06:44 47.8 °F 44.1 °F 30.30 in Calm     87% 0.00 in
06:49 47.8 °F 44.1 °F 30.30 in Calm     87% 0.00 in
06:54 47.8 °F 44.1 °F 30.30 in Calm     87% 0.00 in
06:59 48.0 °F 44.3 °F 30.30 in Calm     87% 0.00 in
07:04 48.1 °F 44.4 °F 30.30 in Calm     87% 0.00 in
07:09 48.3 °F 44.6 °F 30.30 in Calm     87% 0.00 in
07:14 48.4 °F 44.7 °F 30.30 in Calm     87% 0.00 in
07:19 48.7 °F 45.0 °F 30.30 in Calm     87% 0.00 in
07:24 48.9 °F 44.9 °F 30.30 in Calm     86% 0.00 in
07:29 49.2 °F 45.2 °F 30.31 in Calm     86% 0.00 in
07:34 49.4 °F 45.1 °F 30.30 in Calm     85% 0.00 in
07:39 49.6 °F 45.3 °F 30.30 in Calm     85% 0.00 in
07:44 50.0 °F 45.4 °F 30.30 in Calm     84% 0.00 in
07:49 50.3 °F 45.6 °F 30.31 in Calm     84% 0.00 in
07:54 50.6 °F 45.9 °F 30.31 in Calm     84% 0.00 in
07:59 50.8 °F 45.8 °F 30.31 in Calm     83% 0.00 in
08:04 51.4 °F 46.1 °F 30.31 in Calm     82% 0.00 in
08:09 51.8 °F 46.2 °F 30.31 in Calm     81% 0.00 in
08:14 52.1 °F 46.4 °F 30.31 in Calm     81% 0.00 in
08:19 52.6 °F 46.6 °F 30.32 in Calm     80% 0.00 in
08:24 53.0 °F 47.0 °F 30.31 in Calm   1.0 mph 80% 0.00 in
08:29 53.6 °F 47.2 °F 30.32 in Calm   2.0 mph 79% 0.00 in
08:34 54.0 °F 47.3 °F 30.32 in Calm   2.0 mph 78% 0.00 in
08:39 54.9 °F 47.5 °F 30.32 in Calm   2.0 mph 76% 0.00 in
08:44 55.0 °F 47.6 °F 30.32 in Calm   1.0 mph 76% 0.00 in
08:49 55.5 °F 47.7 °F 30.32 in Calm     75% 0.00 in
08:54 56.5 °F 48.7 °F 30.32 in Calm     75% 0.00 in
08:59 56.8 °F 48.6 °F 30.32 in Calm     74% 0.00 in
09:04 57.7 °F 49.1 °F 30.32 in Calm     73% 0.00 in
09:09 57.6 °F 48.6 °F 30.32 in Calm   1.0 mph 72% 0.00 in
09:14 58.7 °F 50.1 °F 30.32 in Calm   2.0 mph 73% 0.00 in
09:19 59.1 °F 50.5 °F 30.32 in Calm   2.0 mph 73% 0.00 in
09:24 59.7 °F 49.9 °F 30.32 in Calm     70% 0.00 in
09:29 60.7 °F 50.1 °F 30.32 in Calm     68% 0.00 in
09:34 60.5 °F 49.1 °F 30.32 in Calm   3.0 mph 66% 0.00 in
09:39 60.8 °F 49.4 °F 30.32 in SSW 1.0 mph 3.0 mph 66% 0.00 in
09:44 61.3 °F 49.4 °F 30.32 in SSW 1.0 mph 1.0 mph 65% 0.00 in
09:49 62.1 °F 50.6 °F 30.32 in SSW 1.0 mph 3.0 mph 66% 0.00 in
09:54 62.1 °F 50.6 °F 30.33 in Calm   1.0 mph 66% 0.00 in
09:59 62.5 °F 50.6 °F 30.32 in Calm     65% 0.00 in
10:04 63.7 °F 51.7 °F 30.32 in Calm     65% 0.00 in
10:09 64.7 °F 50.9 °F 30.32 in Calm     61% 0.00 in
10:14 64.8 °F 51.5 °F 30.32 in Calm     62% 0.00 in
10:19 65.6 °F 50.4 °F 30.32 in Calm     58% 0.00 in
10:24 65.8 °F 49.7 °F 30.32 in ENE 1.0 mph 4.0 mph 56% 0.00 in
10:29 66.2 °F 51.4 °F 30.32 in NNE 2.0 mph 2.0 mph 59% 0.00 in
10:34 66.3 °F 49.6 °F 30.32 in Calm   3.0 mph 55% 0.00 in
10:39 66.5 °F 49.8 °F 30.33 in NNE 1.0 mph 3.0 mph 55% 0.00 in
10:44 67.0 °F 51.7 °F 30.32 in ENE 1.0 mph 5.0 mph 58% 0.00 in
10:49 67.2 °F 49.5 °F 30.32 in NE 1.0 mph 4.0 mph 53% 0.00 in
10:54 67.3 °F 50.6 °F 30.32 in Calm   3.0 mph 55% 0.00 in
10:59 67.7 °F 49.4 °F 30.32 in Calm   3.0 mph 52% 0.00 in
11:04 67.6 °F 49.9 °F 30.32 in ENE 2.0 mph 3.0 mph 53% 0.00 in
11:09 67.9 °F 50.1 °F 30.32 in ESE 1.0 mph 5.0 mph 53% 0.00 in
11:14 68.5 °F 50.2 °F 30.32 in ESE 2.0 mph 5.0 mph 52% 0.00 in
11:19 68.6 °F 51.3 °F 30.32 in NNW 2.0 mph 4.0 mph 54% 0.00 in
11:24 68.9 °F 51.6 °F 30.32 in NNW 2.0 mph 4.0 mph 54% 0.00 in
11:29 69.4 °F 51.5 °F 30.32 in North 1.0 mph 5.0 mph 53% 0.00 in
11:34 69.3 °F 50.4 °F 30.32 in NE 3.0 mph 5.0 mph 51% 0.00 in
11:39 69.2 °F 51.3 °F 30.32 in Calm   5.0 mph 53% 0.00 in
11:44 69.1 °F 53.2 °F 30.31 in North 1.0 mph 5.0 mph 57% 0.00 in
11:49 69.8 °F 54.8 °F 30.31 in NNE 1.0 mph 5.0 mph 59% 0.00 in
11:54 69.9 °F 53.5 °F 30.31 in West 2.0 mph 5.0 mph 56% 0.00 in
11:59 68.2 °F 50.4 °F 30.31 in West 2.0 mph 4.0 mph 53% 0.00 in
12:04 67.9 °F 52.6 °F 30.31 in Calm   2.0 mph 58% 0.00 in
12:09 68.6 °F 50.8 °F 30.31 in Calm   5.0 mph 53% 0.00 in
12:14 68.7 °F 52.4 °F 30.31 in ENE 1.0 mph 5.0 mph 56% 0.00 in
12:19 69.0 °F 52.6 °F 30.31 in NNE 1.0 mph 4.0 mph 56% 0.00 in
12:24 67.9 °F 51.6 °F 30.31 in NNE 2.0 mph 4.0 mph 56% 0.00 in
12:29 67.4 °F 50.7 °F 30.31 in NNE 2.0 mph 4.0 mph 55% 0.00 in
12:34 67.2 °F 50.0 °F 30.31 in NW 2.0 mph 3.0 mph 54% 0.00 in
12:39 67.7 °F 50.9 °F 30.31 in Calm   2.0 mph 55% 0.00 in
12:44 68.0 °F 51.2 °F 30.30 in Calm     55% 0.00 in
12:49 70.0 °F 53.6 °F 30.30 in Calm   3.0 mph 56% 0.00 in
12:54 70.8 °F 54.3 °F 30.30 in NNW 2.0 mph 4.0 mph 56% 0.00 in
12:59 70.9 °F 53.4 °F 30.30 in North 1.0 mph 4.0 mph 54% 0.00 in
13:04 70.8 °F 53.3 °F 30.30 in North 2.0 mph 6.0 mph 54% 0.00 in
13:09 71.1 °F 51.0 °F 30.30 in WSW 4.0 mph 5.0 mph 49% 0.00 in
13:14 70.6 °F 51.6 °F 30.30 in SSW 2.0 mph 4.0 mph 51% 0.00 in
13:19 71.3 °F 50.6 °F 30.30 in SSW 2.0 mph 4.0 mph 48% 0.00 in
13:24 72.0 °F 52.3 °F 30.29 in NE 2.0 mph 5.0 mph 50% 0.00 in
13:29 71.4 °F 50.7 °F 30.29 in NNE 2.0 mph 6.0 mph 48% 0.00 in
13:34 71.7 °F 50.4 °F 30.29 in NNW 2.0 mph 6.0 mph 47% 0.00 in
13:39 72.2 °F 51.4 °F 30.29 in NW 2.0 mph 6.0 mph 48% 0.00 in
13:44 71.9 °F 49.4 °F 30.29 in WNW 2.0 mph 6.0 mph 45% 0.00 in
13:49 72.2 °F 49.7 °F 30.29 in WNW 3.0 mph 6.0 mph 45% 0.00 in
13:54 72.4 °F 51.0 °F 30.29 in NNW 2.0 mph 4.0 mph 47% 0.00 in
13:59 72.5 °F 49.9 °F 30.29 in WNW 3.0 mph 4.0 mph 45% 0.00 in
14:04 72.2 °F 51.4 °F 30.29 in North 4.0 mph 9.0 mph 48% 0.00 in
14:09 70.1 °F 50.6 °F 30.28 in NNE 1.0 mph 4.0 mph 50% 0.00 in
14:14 69.4 °F 51.5 °F 30.29 in North 3.0 mph 5.0 mph 53% 0.00 in
14:19 69.4 °F 51.0 °F 30.28 in North 2.0 mph 5.0 mph 52% 0.00 in
14:24 70.4 °F 54.4 °F 30.28 in NNE 2.0 mph 5.0 mph 57% 0.00 in
14:29 71.0 °F 51.4 °F 30.28 in North 1.0 mph 4.0 mph 50% 0.00 in
14:34 71.4 °F 52.3 °F 30.28 in NE 2.0 mph 7.0 mph 51% 0.00 in
14:39 70.8 °F 51.2 °F 30.28 in NE 1.0 mph 7.0 mph 50% 0.00 in
14:44 69.9 °F 52.0 °F 30.28 in NNW 2.0 mph 4.0 mph 53% 0.00 in
14:49 69.5 °F 50.6 °F 30.28 in NE 3.0 mph 5.0 mph 51% 0.00 in
14:54 69.5 °F 50.0 °F 30.28 in NNE 2.0 mph 5.0 mph 50% 0.00 in
14:59 69.5 °F 51.6 °F 30.27 in NNE 2.0 mph 5.0 mph 53% 0.00 in
15:04 69.8 °F 52.9 °F 30.27 in North 2.0 mph 5.0 mph 55% 0.00 in
15:09 71.2 °F 53.2 °F 30.27 in NNW 2.0 mph 5.0 mph 53% 0.00 in
15:14 72.0 °F 52.3 °F 30.27 in NW 3.0 mph 6.0 mph 50% 0.00 in
15:19 71.2 °F 54.2 °F 30.27 in Calm   5.0 mph 55% 0.00 in
15:24 70.4 °F 50.9 °F 30.27 in North 3.0 mph 10.0 mph 50% 0.00 in
15:29 70.4 °F 51.4 °F 30.27 in NE 3.0 mph 10.0 mph 51% 0.00 in
15:34 71.6 °F 54.6 °F 30.27 in NE 3.0 mph 10.0 mph 55% 0.00 in
15:39 72.1 °F 53.5 °F 30.27 in NE 3.0 mph 8.0 mph 52% 0.00 in
15:44 71.8 °F 54.3 °F 30.27 in ENE 4.0 mph 5.0 mph 54% 0.00 in
15:49 70.8 °F 53.3 °F 30.27 in NE 2.0 mph 5.0 mph 54% 0.00 in
15:54 69.9 °F 53.5 °F 30.27 in NNE 3.0 mph 4.0 mph 56% 0.00 in
15:59 69.4 °F 53.0 °F 30.27 in NNE 2.0 mph 4.0 mph 56% 0.00 in
16:04 69.3 °F 52.4 °F 30.26 in NE 2.0 mph 4.0 mph 55% 0.00 in
16:09 69.2 °F 53.3 °F 30.26 in NNE 2.0 mph 5.0 mph 57% 0.00 in
16:14 69.4 °F 53.0 °F 30.27 in North 2.0 mph 5.0 mph 56% 0.00 in
16:19 69.2 °F 52.8 °F 30.26 in NW 1.0 mph 4.0 mph 56% 0.00 in
16:24 69.8 °F 53.9 °F 30.26 in ENE 3.0 mph 12.0 mph 57% 0.00 in
16:29 70.9 °F 53.4 °F 30.26 in ENE 5.0 mph 12.0 mph 54% 0.00 in
16:34 71.7 °F 54.7 °F 30.26 in NE 3.0 mph 9.0 mph 55% 0.00 in
16:39 72.1 °F 55.5 °F 30.26 in NNE 4.0 mph 8.0 mph 56% 0.00 in
16:44 71.9 °F 54.9 °F 30.26 in North 4.0 mph 5.0 mph 55% 0.00 in
16:49 71.9 °F 54.3 °F 30.26 in NNW 2.0 mph 7.0 mph 54% 0.00 in
16:54 71.6 °F 54.6 °F 30.26 in NNE 3.0 mph 5.0 mph 55% 0.00 in
16:59 71.6 °F 55.1 °F 30.25 in North 2.0 mph 8.0 mph 56% 0.00 in
17:04 70.3 °F 53.4 °F 30.26 in NE 3.0 mph 10.0 mph 55% 0.00 in
17:09 69.2 °F 52.3 °F 30.25 in NE 4.0 mph 10.0 mph 55% 0.00 in
17:14 68.7 °F 52.4 °F 30.25 in NE 4.0 mph 10.0 mph 56% 0.00 in
17:19 68.5 °F 52.2 °F 30.25 in NE 3.0 mph 9.0 mph 56% 0.00 in
17:24 68.4 °F 53.0 °F 30.25 in NE 1.0 mph 6.0 mph 58% 0.00 in
17:29 69.4 °F 53.0 °F 30.25 in NE 2.0 mph 6.0 mph 56% 0.00 in
17:34 70.0 °F 53.6 °F 30.25 in NE 2.0 mph 8.0 mph 56% 0.00 in
17:39 70.3 °F 53.4 °F 30.26 in NE 5.0 mph 11.0 mph 55% 0.00 in
17:44 70.5 °F 54.0 °F 30.26 in Calm   5.0 mph 56% 0.00 in
17:49 70.3 °F 53.4 °F 30.26 in NNW 6.0 mph 7.0 mph 55% 0.00 in
17:54 70.0 °F 53.6 °F 30.26 in NNE 1.0 mph 6.0 mph 56% 0.00 in
17:59 69.8 °F 53.4 °F 30.26 in NNE 3.0 mph 11.0 mph 56% 0.00 in
18:04 69.6 °F 52.7 °F 30.26 in NNE 3.0 mph 11.0 mph 55% 0.00 in
18:09 69.4 °F 53.0 °F 30.26 in NNW 3.0 mph 8.0 mph 56% 0.00 in
18:14 69.4 °F 52.5 °F 30.26 in NE 6.0 mph 7.0 mph 55% 0.00 in
18:19 69.4 °F 52.5 °F 30.26 in NE 6.0 mph 9.0 mph 55% 0.00 in
18:24 69.1 °F 52.2 °F 30.26 in ENE 2.0 mph 9.0 mph 55% 0.00 in
18:29 68.6 °F 52.3 °F 30.26 in NNE 2.0 mph 7.0 mph 56% 0.00 in
18:34 68.3 °F 52.0 °F 30.26 in NE 2.0 mph 7.0 mph 56% 0.00 in
18:39 68.4 °F 52.1 °F 30.26 in NE 3.0 mph 8.0 mph 56% 0.00 in
18:44 68.3 °F 52.0 °F 30.26 in NNE 1.0 mph 7.0 mph 56% 0.00 in
18:49 68.3 °F 52.0 °F 30.26 in ENE 3.0 mph 7.0 mph 56% 0.00 in
18:54 68.1 °F 52.3 °F 30.26 in ENE 1.0 mph 5.0 mph 57% 0.00 in
18:59 67.6 °F 51.8 °F 30.26 in ENE 2.0 mph 4.0 mph 57% 0.00 in
19:04 67.2 °F 51.4 °F 30.26 in ENE 1.0 mph 4.0 mph 57% 0.00 in
19:09 67.1 °F 51.4 °F 30.27 in NE 1.0 mph 4.0 mph 57% 0.00 in
19:14 67.1 °F 51.8 °F 30.27 in NE 2.0 mph 4.0 mph 58% 0.00 in
19:19 67.0 °F 51.3 °F 30.27 in ENE 3.0 mph 5.0 mph 57% 0.00 in
19:24 66.8 °F 51.1 °F 30.27 in ENE 5.0 mph 6.0 mph 57% 0.00 in
19:29 66.6 °F 50.9 °F 30.27 in NE 2.0 mph 5.0 mph 57% 0.00 in
19:34 66.3 °F 50.6 °F 30.27 in Calm   2.0 mph 57% 0.00 in
19:39 65.9 °F 50.7 °F 30.27 in Calm   3.0 mph 58% 0.00 in
19:44 65.4 °F 50.7 °F 30.27 in Calm     59% 0.00 in
19:49 65.1 °F 50.9 °F 30.27 in Calm   4.0 mph 60% 0.00 in
19:54 64.9 °F 50.7 °F 30.27 in NE 1.0 mph 5.0 mph 60% 0.00 in
19:59 64.6 °F 50.8 °F 30.27 in Calm   2.0 mph 61% 0.00 in
20:04 64.1 °F 50.8 °F 30.27 in Calm     62% 0.00 in
20:09 63.9 °F 50.6 °F 30.27 in Calm   2.0 mph 62% 0.00 in
20:14 63.6 °F 50.3 °F 30.27 in Calm   2.0 mph 62% 0.00 in
20:19 63.3 °F 50.5 °F 30.27 in Calm     63% 0.00 in
20:24 62.9 °F 50.5 °F 30.27 in Calm     64% 0.00 in
20:29 62.5 °F 50.6 °F 30.27 in Calm     65% 0.00 in
20:34 62.3 °F 50.4 °F 30.27 in Calm     65% 0.00 in
20:39 62.3 °F 50.4 °F 30.28 in Calm     65% 0.00 in
20:44 62.2 °F 50.3 °F 30.27 in Calm   2.0 mph 65% 0.00 in
20:49 62.1 °F 50.2 °F 30.28 in Calm   2.0 mph 65% 0.00 in
20:54 61.8 °F 50.3 °F 30.28 in Calm   3.0 mph 66% 0.00 in
20:59 61.6 °F 50.1 °F 30.28 in Calm   3.0 mph 66% 0.00 in
21:04 61.7 °F 50.2 °F 30.28 in Calm     66% 0.00 in
21:09 61.9 °F 50.4 °F 30.29 in Calm     66% 0.00 in
21:14 61.8 °F 50.3 °F 30.29 in Calm     66% 0.00 in
21:19 61.7 °F 50.2 °F 30.29 in Calm     66% 0.00 in
21:24 61.7 °F 50.2 °F 30.29 in Calm     66% 0.00 in
21:29 61.6 °F 50.5 °F 30.29 in Calm     67% 0.00 in
21:34 61.3 °F 50.2 °F 30.30 in Calm   2.0 mph 67% 0.00 in
21:39 61.3 °F 50.6 °F 30.30 in Calm   1.0 mph 68% 0.00 in
21:44 61.1 °F 50.5 °F 30.30 in Calm   2.0 mph 68% 0.00 in
21:49 61.0 °F 50.4 °F 30.29 in Calm   2.0 mph 68% 0.00 in
21:54 60.8 °F 50.6 °F 30.29 in Calm   3.0 mph 69% 0.00 in
21:59 60.6 °F 50.4 °F 30.29 in Calm     69% 0.00 in
22:04 60.6 °F 50.4 °F 30.29 in Calm     69% 0.00 in
22:09 60.4 °F 50.6 °F 30.29 in Calm     70% 0.00 in
22:14 60.4 °F 50.6 °F 30.29 in East 1.0 mph 5.0 mph 70% 0.00 in
22:19 60.3 °F 50.5 °F 30.29 in East 1.0 mph 5.0 mph 70% 0.00 in
22:24 60.4 °F 50.6 °F 30.29 in East 1.0 mph 6.0 mph 70% 0.00 in
22:29 60.3 °F 50.5 °F 30.29 in East 2.0 mph 3.0 mph 70% 0.00 in
22:34 60.2 °F 50.8 °F 30.29 in Calm   5.0 mph 71% 0.00 in
22:39 60.0 °F 50.6 °F 30.29 in Calm   1.0 mph 71% 0.00 in
22:44 59.7 °F 50.7 °F 30.29 in ESE 2.0 mph 4.0 mph 72% 0.00 in
22:49 59.6 °F 50.6 °F 30.29 in ESE 2.0 mph 5.0 mph 72% 0.00 in
22:54 59.5 °F 50.8 °F 30.29 in ESE 2.0 mph 5.0 mph 73% 0.00 in
22:59 59.2 °F 50.9 °F 30.29 in SE 1.0 mph 5.0 mph 74% 0.00 in
23:04 59.0 °F 50.7 °F 30.29 in SE 1.0 mph 5.0 mph 74% 0.00 in
23:09 58.7 °F 50.8 °F 30.29 in Calm     75% 0.00 in
23:14 58.3 °F 50.8 °F 30.29 in Calm     76% 0.00 in
23:19 58.2 °F 50.7 °F 30.29 in Calm   3.0 mph 76% 0.00 in
23:24 58.0 °F 50.8 °F 30.29 in ESE 1.0 mph 3.0 mph 77% 0.00 in
23:29 57.8 °F 50.6 °F 30.29 in Calm   2.0 mph 77% 0.00 in
23:34 57.8 °F 50.6 °F 30.29 in Calm   3.0 mph 77% 0.00 in
23:39 57.5 °F 50.3 °F 30.29 in Calm     77% 0.00 in
23:44 57.3 °F 50.5 °F 30.29 in Calm     78% 0.00 in
23:49 57.1 °F 50.3 °F 30.29 in Calm     78% 0.00 in
23:54 57.0 °F 50.5 °F 30.29 in Calm     79% 0.00 in
23:59 56.8 °F 50.4 °F 30.29 in Calm     79% 0.00 in
Buffalo, New York, USA
Compliments of Weather Underground - 2.5 mb